Terminal Aerodrome Forecast
Issued by NWS

Current Version | Previous Version | Text Only | Print | Product List | Glossary Off
Versions: 1 2 3 4 5 6 7 8 9 10 11 12 13 14 15 16 17 18 19 20

000
FTUS41 KPBZ 072300
TAFMGW
TAF
KMGW 072320Z 0800/0824 22008G16KT P6SM FEW070
     FM080100 24010KT P6SM VCSH BKN040
     FM080500 21005KT P6SM SCT040
     FM081600 21010G22KT P6SM BKN040
     FM081800 21012G26KT P6SM -SHRA VCTS BKN040CB=

USA.gov is the U.S. government's official web portal to all federal, state and local government web resources and services.